Time;durP1;ratioP1;P1;durP2;ratioP2;P2;SDS_P1;SDS_P2;PMS_P1;PMS_P2;Temp;Humidity;BMP_temperature;BMP_pressure;BME280_temperature;BME280_humidity;BME280_pressure;Samples;Min_cycle;Max_cycle;Signal;HPM_P1;HPM_P2
2022/08/05 00:00:06;;;;;;;11.75;5.00;;;;;;;-147.76;100.00;60361.69;5115687;28;20480;-76
2022/08/05 00:02:54;;;;;;;10.85;4.75;;;;;;;-147.76;100.00;60361.69;5115728;28;20056;-76
2022/08/05 00:05:22;;;;;;;11.80;5.40;;;;;;;-147.76;100.00;60361.69;5115486;28;20439;-76
2022/08/05 00:07:50;;;;;;;8.15;4.82;;;;;;;-147.76;100.00;60361.69;5115039;28;20048;-76
2022/08/05 00:10:17;;;;;;;8.95;5.13;;;;;;;-147.76;100.00;60361.69;5115166;28;20052;-76
2022/08/05 00:12:44;;;;;;;9.27;5.05;;;;;;;-147.76;100.00;60361.69;5115197;28;20104;-77
2022/08/05 00:15:13;;;;;;;9.30;4.90;;;;;;;-147.76;100.00;60361.69;5115342;27;20043;-77
2022/08/05 00:17:41;;;;;;;10.98;5.00;;;;;;;-147.76;100.00;60361.69;5115252;27;20047;-77
2022/08/05 00:20:09;;;;;;;12.13;5.25;;;;;;;-147.76;100.00;60361.69;5115309;28;20095;-76
2022/08/05 00:22:37;;;;;;;8.43;4.80;;;;;;;-147.76;100.00;60361.69;5114892;28;20043;-76
2022/08/05 00:25:05;;;;;;;10.38;4.72;;;;;;;-147.76;100.00;60361.69;5115242;27;20557;-76
2022/08/05 00:27:33;;;;;;;12.65;5.20;;;;;;;-147.76;100.00;60361.69;5114927;28;20043;-76
2022/08/05 00:30:01;;;;;;;10.05;5.35;;;;;;;-147.76;100.00;60361.69;5114841;27;20046;-77
2022/08/05 00:32:30;;;;;;;8.32;5.10;;;;;;;-147.76;100.00;60361.69;5115015;27;20043;-77
2022/08/05 00:34:57;;;;;;;8.98;4.50;;;;;;;-147.76;100.00;60361.69;5114858;27;20040;-77
2022/08/05 00:37:25;;;;;;;9.45;4.60;;;;;;;-147.76;100.00;60361.69;5114673;27;20044;-76
2022/08/05 00:39:52;;;;;;;11.50;4.80;;;;;;;-147.76;100.00;60361.69;5114954;28;20096;-76
2022/08/05 00:42:30;;;;;;;8.38;4.57;;;;;;;-147.76;100.00;60361.69;5114872;27;20040;-76
2022/08/05 00:44:58;;;;;;;8.60;5.13;;;;;;;-147.76;100.00;60361.69;5116026;27;20035;-77
2022/08/05 00:47:25;;;;;;;11.05;5.00;;;;;;;-147.76;100.00;60361.69;5114670;28;20044;-76
2022/08/05 00:49:54;;;;;;;9.15;5.10;;;;;;;-147.76;100.00;60361.69;5114242;28;20052;-76
2022/08/05 00:52:22;;;;;;;8.20;4.20;;;;;;;-147.76;100.00;60361.69;5114117;28;20504;-76
2022/08/05 00:54:49;;;;;;;8.27;4.40;;;;;;;-147.76;100.00;60361.69;5114583;28;20052;-76
2022/08/05 00:57:17;;;;;;;9.55;4.68;;;;;;;-147.76;100.00;60361.69;5114213;28;20490;-77
2022/08/05 00:59:44;;;;;;;10.23;4.90;;;;;;;-147.76;100.00;60361.69;5114524;28;20050;-77
2022/08/05 01:02:12;;;;;;;11.35;4.30;;;;;;;-147.76;100.00;60361.69;5114578;28;20480;-76
2022/08/05 01:04:39;;;;;;;11.65;5.22;;;;;;;-147.76;100.00;60361.69;5114190;27;20043;-76
2022/08/05 01:07:09;;;;;;;9.85;5.20;;;;;;;-147.76;100.00;60361.69;5114391;28;20039;-76
2022/08/05 01:09:36;;;;;;;11.90;5.57;;;;;;;-147.76;100.00;60361.69;5114129;28;20054;-76
2022/08/05 01:12:07;;;;;;;11.30;5.25;;;;;;;-147.76;100.00;60361.69;5114381;27;20043;-76
2022/08/05 01:14:37;;;;;;;9.13;4.75;;;;;;;-147.76;100.00;60361.69;5114574;27;20052;-76
2022/08/05 01:17:06;;;;;;;8.52;4.50;;;;;;;-147.76;100.00;60361.69;5113956;28;20150;-77
2022/08/05 01:19:37;;;;;;;7.47;4.22;;;;;;;-147.76;100.00;60361.69;5113743;27;20043;-76
2022/08/05 01:22:18;;;;;;;10.90;4.53;;;;;;;-147.76;100.00;60361.69;5113754;28;20044;-76
2022/08/05 01:25:13;;;;;;;9.95;4.95;;;;;;;-147.76;100.00;60361.69;5116021;27;20446;-76
2022/08/05 01:27:49;;;;;;;10.65;4.78;;;;;;;-147.76;100.00;60361.69;5112063;28;20059;-77
2022/08/05 01:30:16;;;;;;;;;;;;;;;-147.76;100.00;60361.69;5115283;27;20105;-76
2022/08/05 01:32:45;;;;;;;10.23;5.32;;;;;;;-147.76;100.00;60361.69;5114008;28;19920;-76
2022/08/05 01:35:15;;;;;;;11.10;5.40;;;;;;;-147.76;100.00;60361.69;5113463;28;20043;-77
2022/08/05 01:37:46;;;;;;;17.73;5.78;;;;;;;-147.76;100.00;60361.69;5113767;28;20047;-76
2022/08/05 01:40:15;;;;;;;11.65;5.80;;;;;;;-147.76;100.00;60361.69;5113867;28;20040;-76
2022/08/05 01:42:43;;;;;;;10.00;5.60;;;;;;;-147.76;100.00;60361.69;5113797;27;20043;-77
2022/08/05 01:45:14;;;;;;;9.50;5.70;;;;;;;-147.76;100.00;60361.69;5113697;28;20050;-77
2022/08/05 01:47:42;;;;;;;9.27;5.20;;;;;;;-147.76;100.00;60361.69;5113505;28;20047;-76
2022/08/05 01:50:12;;;;;;;11.57;5.60;;;;;;;-147.76;100.00;60361.69;5112859;28;20514;-76
2022/08/05 01:52:41;;;;;;;8.38;5.10;;;;;;;-147.76;100.00;60361.69;5113780;28;20046;-76
2022/08/05 01:55:10;;;;;;;11.13;5.50;;;;;;;-147.76;100.00;60361.69;5113497;28;20043;-76
2022/08/05 01:57:39;;;;;;;12.65;6.00;;;;;;;-147.76;100.00;60361.69;5113568;27;20043;-76
2022/08/05 02:00:08;;;;;;;11.40;5.75;;;;;;;-147.76;100.00;60361.69;5113552;28;20044;-76
2022/08/05 02:02:41;;;;;;;10.90;5.68;;;;;;;-147.76;100.00;60361.69;5113245;28;20043;-77
2022/08/05 02:05:11;;;;;;;13.07;6.05;;;;;;;-147.76;100.00;60361.69;5113354;28;20054;-76
2022/08/05 02:07:42;;;;;;;9.27;5.47;;;;;;;-147.76;100.00;60361.69;5114718;28;20043;-77
2022/08/05 02:10:10;;;;;;;11.38;5.70;;;;;;;-147.76;100.00;60361.69;5113378;28;20040;-76
2022/08/05 02:12:42;;;;;;;15.48;5.25;;;;;;;-147.76;100.00;60361.69;5113437;28;20067;-76
2022/08/05 02:15:14;;;;;;;10.20;5.38;;;;;;;-147.76;100.00;60361.69;5113311;28;20047;-76
2022/08/05 02:17:48;;;;;;;9.27;5.35;;;;;;;-147.76;100.00;60361.69;5114160;27;20052;-76
2022/08/05 02:20:20;;;;;;;9.10;5.18;;;;;;;-147.76;100.00;60361.69;5114745;27;20047;-77
2022/08/05 02:22:50;;;;;;;9.30;5.45;;;;;;;-147.76;100.00;60361.69;5115323;27;20043;-77
2022/08/05 02:25:22;;;;;;;13.32;5.38;;;;;;;-147.76;100.00;60361.69;5113640;28;20396;-77
2022/08/05 02:27:50;;;;;;;10.82;5.35;;;;;;;-147.76;100.00;60361.69;5113813;27;20040;-76
2022/08/05 02:30:18;;;;;;;14.07;5.50;;;;;;;-147.76;100.00;60361.69;5113310;27;20114;-76
2022/08/05 02:32:49;;;;;;;10.13;5.25;;;;;;;-147.76;100.00;60361.69;5114178;28;20055;-76
2022/08/05 02:35:24;;;;;;;9.45;5.72;;;;;;;-147.76;100.00;60361.69;5117310;27;20063;-77
2022/08/05 02:37:54;;;;;;;10.13;5.20;;;;;;;-147.76;100.00;60361.69;5117691;27;20069;-76
2022/08/05 02:40:23;;;;;;;9.93;5.40;;;;;;;-147.76;100.00;60361.69;5116995;28;20044;-76
2022/08/05 02:42:50;;;;;;;9.30;5.32;;;;;;;-147.76;100.00;60361.69;5117020;28;20088;-76
2022/08/05 02:45:19;;;;;;;8.93;5.20;;;;;;;-147.76;100.00;60361.69;5117112;27;20497;-77
2022/08/05 02:47:48;;;;;;;10.85;5.80;;;;;;;-147.76;100.00;60361.69;5116485;27;20093;-76
2022/08/05 02:50:16;;;;;;;11.18;6.00;;;;;;;-147.76;100.00;60361.69;5116506;28;20442;-77
2022/08/05 02:52:45;;;;;;;9.35;5.40;;;;;;;-147.76;100.00;60361.69;5116853;28;20050;-77
2022/08/05 02:55:13;;;;;;;10.70;5.13;;;;;;;-147.76;100.00;60361.69;5116750;28;20036;-77
2022/08/05 02:57:41;;;;;;;10.38;5.60;;;;;;;-147.76;100.00;60361.69;5116719;28;20093;-76
2022/08/05 03:00:12;;;;;;;9.00;5.50;;;;;;;-147.76;100.00;60361.69;5116760;27;20044;-77
2022/08/05 03:02:40;;;;;;;12.10;6.30;;;;;;;-147.76;100.00;60361.69;5116319;28;20412;-76
2022/08/05 03:05:11;;;;;;;12.27;7.50;;;;;;;-147.76;100.00;60361.69;5116604;28;20176;-76
2022/08/05 03:07:39;;;;;;;13.88;8.18;;;;;;;-147.76;100.00;60361.69;5117609;28;20048;-76
2022/08/05 03:10:08;;;;;;;14.43;7.63;;;;;;;-147.76;100.00;60361.69;5116445;28;20075;-76
2022/08/05 03:12:37;;;;;;;12.98;6.53;;;;;;;-147.76;100.00;60361.69;5116485;28;20523;-76
2022/08/05 03:15:07;;;;;;;11.05;6.65;;;;;;;-147.76;100.00;60361.69;5116442;27;20089;-76
2022/08/05 03:17:35;;;;;;;9.85;6.40;;;;;;;-147.76;100.00;60361.69;5116426;28;20044;-77
2022/08/05 03:20:03;;;;;;;9.93;6.05;;;;;;;-147.76;100.00;60361.69;5116442;28;20069;-76
2022/08/05 03:22:33;;;;;;;11.35;6.97;;;;;;;-147.76;100.00;60361.69;5116354;28;20055;-76
2022/08/05 03:25:00;;;;;;;11.60;6.72;;;;;;;-147.76;100.00;60361.69;5116387;28;20493;-76
2022/08/05 03:27:28;;;;;;;11.25;6.95;;;;;;;-147.76;100.00;60361.69;5116253;28;20044;-76
2022/08/05 03:29:56;;;;;;;10.98;6.65;;;;;;;-147.76;100.00;60361.69;5115589;28;20048;-77
2022/08/05 03:32:23;;;;;;;15.02;7.32;;;;;;;-147.76;100.00;60361.69;5116255;27;20508;-76
2022/08/05 03:34:52;;;;;;;10.57;6.43;;;;;;;-147.76;100.00;60361.69;5115881;28;20571;-76
2022/08/05 03:37:20;;;;;;;13.82;8.00;;;;;;;-147.76;100.00;60361.69;5116041;27;20043;-76
2022/08/05 03:40:00;;;;;;;13.38;8.10;;;;;;;-147.76;100.00;60361.69;5115901;28;20093;-76
2022/08/05 03:42:28;;;;;;;14.90;7.93;;;;;;;-147.76;100.00;60361.69;5116705;27;20096;-76
2022/08/05 03:44:56;;;;;;;11.60;6.80;;;;;;;-147.76;100.00;60361.69;5115336;28;20231;-76
2022/08/05 03:47:23;;;;;;;12.38;6.47;;;;;;;-147.76;100.00;60361.69;5115977;27;20068;-77
2022/08/05 03:49:51;;;;;;;11.02;6.35;;;;;;;-147.76;100.00;60361.69;5095675;28;20063;-76
2022/08/05 03:52:21;;;;;;;10.73;6.35;;;;;;;-147.76;100.00;60361.69;5115722;28;20531;-76
2022/08/05 03:54:53;;;;;;;10.60;6.78;;;;;;;-147.76;100.00;60361.69;5115768;28;20054;-77
2022/08/05 03:57:25;;;;;;;10.43;6.50;;;;;;;-147.76;100.00;60361.69;5115610;28;20047;-76
2022/08/05 03:59:56;;;;;;;10.35;6.18;;;;;;;-147.76;100.00;60361.69;5115252;28;20048;-77
2022/08/05 04:02:26;;;;;;;10.77;6.20;;;;;;;-147.76;100.00;60361.69;5116358;27;20044;-76
2022/08/05 04:04:54;;;;;;;12.73;6.20;;;;;;;-147.76;100.00;60361.69;5115508;27;20139;-76
2022/08/05 04:07:22;;;;;;;9.95;5.90;;;;;;;-147.76;100.00;60361.69;5115585;27;20412;-77
2022/08/05 04:09:49;;;;;;;11.20;5.50;;;;;;;-147.76;100.00;60361.69;5115398;28;20400;-76
2022/08/05 04:12:17;;;;;;;9.18;5.65;;;;;;;-147.76;100.00;60361.69;5115590;27;20400;-76
2022/08/05 04:14:46;;;;;;;10.32;5.32;;;;;;;-147.76;100.00;60361.69;5115127;28;20046;-77
2022/08/05 04:17:14;;;;;;;13.18;7.22;;;;;;;-147.76;100.00;60361.69;5115185;28;20078;-76
2022/08/05 04:19:46;;;;;;;12.63;7.03;;;;;;;-147.76;100.00;60361.69;5115199;28;20047;-76
2022/08/05 04:22:14;;;;;;;13.15;7.22;;;;;;;-147.76;100.00;60361.69;5115199;28;20054;-76
2022/08/05 04:24:44;;;;;;;13.18;6.00;;;;;;;-147.76;100.00;60361.69;5115071;28;20400;-76
2022/08/05 04:27:13;;;;;;;12.00;6.90;;;;;;;-147.76;100.00;60361.69;5115813;27;20039;-76
2022/08/05 04:29:40;;;;;;;17.50;8.68;;;;;;;-147.76;100.00;60361.69;5114454;28;20135;-76
2022/08/05 04:32:09;;;;;;;11.55;6.28;;;;;;;-147.76;100.00;60361.69;5115194;28;20081;-77
2022/08/05 04:34:37;;;;;;;10.65;5.80;;;;;;;-147.76;100.00;60361.69;5115056;27;20043;-76
2022/08/05 04:37:05;;;;;;;11.63;6.40;;;;;;;-147.76;100.00;60361.69;5114907;27;20065;-77
2022/08/05 04:39:33;;;;;;;9.95;5.80;;;;;;;-147.76;100.00;60361.69;5114785;28;20104;-76
2022/08/05 04:42:00;;;;;;;15.02;7.25;;;;;;;-147.76;100.00;60361.69;5114846;27;20118;-76
2022/08/05 04:44:28;;;;;;;10.35;5.78;;;;;;;-147.76;100.00;60361.69;5114547;27;20089;-76
2022/08/05 04:46:55;;;;;;;12.95;6.13;;;;;;;-147.76;100.00;60361.69;5114560;28;20070;-76
2022/08/05 04:49:24;;;;;;;15.38;8.55;;;;;;;-147.76;100.00;60361.69;5114330;28;20055;-77
2022/08/05 04:51:51;;;;;;;18.45;9.45;;;;;;;-147.76;100.00;60361.69;5114863;28;20077;-76
2022/08/05 04:54:20;;;;;;;13.68;7.80;;;;;;;-147.76;100.00;60361.69;5114553;28;20055;-77
2022/08/05 04:56:48;;;;;;;11.95;7.85;;;;;;;-147.76;100.00;60361.69;5113625;28;20407;-76
2022/08/05 04:59:16;;;;;;;12.82;6.45;;;;;;;-147.76;100.00;60361.69;5114475;28;20039;-76
2022/08/05 05:01:43;;;;;;;11.30;7.35;;;;;;;-147.76;100.00;60361.69;5114387;28;20048;-77
2022/08/05 05:04:11;;;;;;;12.18;7.30;;;;;;;-147.76;100.00;60361.69;5114252;28;20500;-76
2022/08/05 05:06:40;;;;;;;14.13;7.63;;;;;;;-147.76;100.00;60361.69;5114246;28;20059;-76
2022/08/05 05:09:08;;;;;;;12.73;7.18;;;;;;;-147.76;100.00;60361.69;5114049;28;20171;-76
2022/08/05 05:11:35;;;;;;;11.73;7.32;;;;;;;-147.76;100.00;60361.69;5113975;28;20046;-76
2022/08/05 05:14:03;;;;;;;11.45;7.53;;;;;;;-147.76;100.00;60361.69;5114179;28;20100;-77
2022/08/05 05:16:31;;;;;;;14.07;7.18;;;;;;;-147.76;100.00;60361.69;5113987;28;20047;-76
2022/08/05 05:18:58;;;;;;;12.32;7.35;;;;;;;-147.76;100.00;60361.69;5114094;28;20058;-76
2022/08/05 05:21:25;;;;;;;16.75;7.40;;;;;;;-147.76;100.00;60361.69;5114184;28;20100;-76
2022/08/05 05:23:54;;;;;;;11.27;7.03;;;;;;;-147.76;100.00;60361.69;5114024;27;20520;-77
2022/08/05 05:26:22;;;;;;;11.82;7.20;;;;;;;-147.76;100.00;60361.69;5113714;27;20044;-76
2022/08/05 05:28:49;;;;;;;13.18;7.50;;;;;;;-147.76;100.00;60361.69;5114015;28;20434;-76
2022/08/05 05:31:17;;;;;;;13.70;7.25;;;;;;;-147.76;100.00;60361.69;5114106;27;20039;-77
2022/08/05 05:33:44;;;;;;;14.23;7.53;;;;;;;-147.76;100.00;60361.69;5114060;27;20089;-77
2022/08/05 05:36:12;;;;;;;11.65;7.07;;;;;;;-147.76;100.00;60361.69;5114026;28;20046;-77
2022/08/05 05:38:39;;;;;;;11.18;7.50;;;;;;;-147.76;100.00;60361.69;5113888;27;20377;-76
2022/08/05 05:41:08;;;;;;;11.93;7.15;;;;;;;-147.76;100.00;60361.69;5113548;27;20446;-76
2022/08/05 05:43:36;;;;;;;15.30;7.20;;;;;;;-147.76;100.00;60361.69;5113630;28;20043;-77
2022/08/05 05:46:03;;;;;;;13.57;7.30;;;;;;;-147.76;100.00;60361.69;5113647;28;20378;-76
2022/08/05 05:48:31;;;;;;;12.45;7.28;;;;;;;-147.76;100.00;60361.69;5113575;28;20048;-77
2022/08/05 05:50:58;;;;;;;13.10;7.60;;;;;;;-147.76;100.00;60361.69;5113374;28;20066;-76
2022/08/05 05:53:26;;;;;;;12.77;7.10;;;;;;;-147.76;100.00;60361.69;5113779;28;20047;-76
2022/08/05 05:55:53;;;;;;;12.75;7.47;;;;;;;-147.76;100.00;60361.69;5113240;28;20051;-77
2022/08/05 05:58:22;;;;;;;15.80;7.15;;;;;;;-147.76;100.00;60361.69;5113495;28;20128;-77
2022/08/05 06:00:50;;;;;;;14.93;8.27;;;;;;;-147.76;100.00;60361.69;5113661;28;20044;-77
2022/08/05 06:03:17;;;;;;;13.63;7.28;;;;;;;-147.76;100.00;60361.69;5113625;28;20520;-77
2022/08/05 06:05:44;;;;;;;13.95;8.00;;;;;;;-147.76;100.00;60361.69;5113693;28;20044;-76
2022/08/05 06:08:12;;;;;;;14.85;7.10;;;;;;;-147.76;100.00;60361.69;5117462;28;20136;-76
2022/08/05 06:10:39;;;;;;;12.07;7.25;;;;;;;-147.76;100.00;60361.69;5117334;28;20052;-76
2022/08/05 06:13:07;;;;;;;14.20;7.47;;;;;;;-147.76;100.00;60361.69;5117708;28;20040;-76
2022/08/05 06:15:36;;;;;;;11.63;7.43;;;;;;;-147.76;100.00;60361.69;5117629;28;20047;-76
2022/08/05 06:18:03;;;;;;;13.02;7.20;;;;;;;-147.76;100.00;60361.69;5117665;27;20051;-76
2022/08/05 06:20:31;;;;;;;13.40;7.28;;;;;;;-147.76;100.00;60361.69;5117482;27;20054;-76
2022/08/05 06:22:59;;;;;;;13.18;7.22;;;;;;;-147.76;100.00;60361.69;5117612;27;20052;-76
2022/08/05 06:25:26;;;;;;;12.77;7.50;;;;;;;-147.76;100.00;60361.69;5117149;27;20074;-76
2022/08/05 06:27:53;;;;;;;14.10;7.10;;;;;;;-147.76;100.00;60361.69;5117612;27;20450;-76
2022/08/05 06:30:21;;;;;;;13.20;7.22;;;;;;;-147.76;100.00;60361.69;5117406;27;20052;-76
2022/08/05 06:32:50;;;;;;;12.55;7.05;;;;;;;-147.76;100.00;60361.69;5117374;27;20050;-77
2022/08/05 06:35:17;;;;;;;11.68;6.95;;;;;;;-147.76;100.00;60361.69;5117319;28;20088;-77
2022/08/05 06:37:45;;;;;;;11.10;7.18;;;;;;;-147.76;100.00;60361.69;5117287;27;20073;-76
2022/08/05 06:40:13;;;;;;;12.20;7.10;;;;;;;-147.76;100.00;60361.69;5116839;28;20046;-77
2022/08/05 06:42:41;;;;;;;12.90;6.65;;;;;;;-147.76;100.00;60361.69;5117384;28;20051;-77
2022/08/05 06:45:09;;;;;;;10.73;7.03;;;;;;;-147.76;100.00;60361.69;5117136;27;20044;-76
2022/08/05 06:47:37;;;;;;;10.93;6.57;;;;;;;-147.76;100.00;60361.69;5117199;27;20044;-76
2022/08/05 06:50:07;;;;;;;11.93;6.90;;;;;;;-147.76;100.00;60361.69;5116576;28;20455;-77
2022/08/05 06:52:34;;;;;;;11.45;6.68;;;;;;;-147.76;100.00;60361.69;5117012;28;20046;-77
2022/08/05 06:55:02;;;;;;;10.55;6.63;;;;;;;-147.76;100.00;60361.69;5116842;28;20047;-77
2022/08/05 06:57:29;;;;;;;11.93;6.50;;;;;;;-147.76;100.00;60361.69;5116994;28;20065;-77
2022/08/05 06:59:57;;;;;;;12.32;6.90;;;;;;;-147.76;100.00;60361.69;5116834;28;20051;-77
2022/08/05 07:02:24;;;;;;;11.93;6.72;;;;;;;-147.76;100.00;60361.69;5116835;28;20105;-77
2022/08/05 07:04:52;;;;;;;12.00;6.80;;;;;;;-147.76;100.00;60361.69;5116918;28;20052;-76
2022/08/05 07:07:21;;;;;;;11.30;6.47;;;;;;;-147.76;100.00;60361.69;5116307;28;20063;-76
2022/08/05 07:09:48;;;;;;;15.90;6.32;;;;;;;-147.76;100.00;60361.69;5116522;27;20039;-77
2022/08/05 07:17:42;;;;;;;12.27;6.25;;;;;;;-147.76;100.00;60361.69;5115998;28;20058;-77
2022/08/05 07:20:10;;;;;;;10.77;6.82;;;;;;;-147.76;100.00;60361.69;5116052;28;20250;-76
2022/08/05 07:22:39;;;;;;;10.10;6.43;;;;;;;-147.76;100.00;60361.69;5116037;27;20039;-76
2022/08/05 07:25:07;;;;;;;10.88;6.35;;;;;;;-147.76;100.00;60361.69;5116346;27;20504;-77
2022/08/05 07:27:35;;;;;;;11.60;6.40;;;;;;;-147.76;100.00;60361.69;5116285;28;20480;-76
2022/08/05 07:30:02;;;;;;;11.15;6.07;;;;;;;-147.76;100.00;60361.69;5116252;28;20517;-78
2022/08/05 07:32:30;;;;;;;12.57;6.40;;;;;;;-147.76;100.00;60361.69;5116377;27;20116;-77
2022/08/05 07:34:57;;;;;;;13.18;6.15;;;;;;;-147.76;100.00;60361.69;5116197;27;20040;-76
2022/08/05 07:37:25;;;;;;;11.85;6.10;;;;;;;-147.76;100.00;60361.69;5115856;27;20044;-77
2022/08/05 07:39:53;;;;;;;13.85;6.07;;;;;;;-147.76;100.00;60361.69;5116187;27;20434;-77
2022/08/05 07:42:21;;;;;;;10.23;6.03;;;;;;;-147.76;100.00;60361.69;5115946;28;20058;-77
2022/08/05 07:44:48;;;;;;;10.18;5.90;;;;;;;-147.76;100.00;60361.69;5116127;27;20040;-76
2022/08/05 07:47:16;;;;;;;12.05;6.15;;;;;;;-147.76;100.00;60361.69;5116059;27;20048;-76
2022/08/05 07:49:43;;;;;;;10.18;6.10;;;;;;;-147.76;100.00;60361.69;5115594;27;20051;-78
2022/08/05 07:52:11;;;;;;;14.40;6.10;;;;;;;-147.76;100.00;60361.69;5115278;28;20043;-76
2022/08/05 07:54:38;;;;;;;11.45;6.00;;;;;;;-147.76;100.00;60361.69;5115906;27;20043;-77
2022/08/05 07:57:07;;;;;;;11.38;5.65;;;;;;;-147.76;100.00;60361.69;5115706;28;20043;-76
2022/08/05 07:59:35;;;;;;;13.02;5.97;;;;;;;-147.76;100.00;60361.69;5115562;28;20489;-76
2022/08/05 08:02:02;;;;;;;12.50;6.20;;;;;;;-147.76;100.00;60361.69;5115560;28;20044;-76
2022/08/05 08:04:30;;;;;;;9.80;5.80;;;;;;;-147.76;100.00;60361.69;5115696;28;20051;-76
2022/08/05 08:06:59;;;;;;;9.90;5.80;;;;;;;-147.76;100.00;60361.69;5115224;27;20500;-76
2022/08/05 08:09:27;;;;;;;12.00;5.78;;;;;;;-147.76;100.00;60361.69;5115321;28;20047;-77
2022/08/05 08:11:55;;;;;;;10.43;5.88;;;;;;;-147.76;100.00;60361.69;5115282;28;20412;-78
2022/08/05 08:14:24;;;;;;;11.90;5.80;;;;;;;-147.76;100.00;60361.69;5115301;28;20400;-77
2022/08/05 08:16:51;;;;;;;12.18;5.65;;;;;;;-147.76;100.00;60361.69;5115281;27;20067;-76
2022/08/05 08:19:19;;;;;;;10.15;5.70;;;;;;;-147.76;100.00;60361.69;5115218;27;20039;-76
2022/08/05 08:21:46;;;;;;;10.18;5.70;;;;;;;-147.76;100.00;60361.69;5115087;27;20457;-77
2022/08/05 08:24:13;;;;;;;13.13;5.70;;;;;;;-147.76;100.00;60361.69;5115264;27;20043;-77
2022/08/05 08:26:41;;;;;;;11.00;5.80;;;;;;;-147.76;100.00;60361.69;5115062;28;20048;-77
2022/08/05 08:29:08;;;;;;;12.27;5.80;;;;;;;-147.76;100.00;60361.69;5115071;28;20039;-76
2022/08/05 08:31:37;;;;;;;9.85;5.75;;;;;;;-147.76;100.00;60361.69;5113948;28;20051;-77
2022/08/05 08:34:06;;;;;;;10.65;5.40;;;;;;;-147.76;100.00;60361.69;5114914;28;20050;-77
2022/08/05 08:36:33;;;;;;;9.70;5.43;;;;;;;-147.76;100.00;60361.69;5114765;28;20043;-76
2022/08/05 08:39:01;;;;;;;12.80;5.55;;;;;;;-147.76;100.00;60361.69;5114904;27;20097;-76
2022/08/05 08:41:30;;;;;;;9.15;5.40;;;;;;;-147.76;100.00;60361.69;5114883;27;20044;-76
2022/08/05 08:43:58;;;;;;;10.85;5.30;;;;;;;-147.76;100.00;60361.69;5114773;27;20050;-77
2022/08/05 08:46:27;;;;;;;10.32;5.70;;;;;;;-147.76;100.00;60361.69;5114711;28;20070;-77
2022/08/05 08:48:57;;;;;;;11.15;5.25;;;;;;;-147.76;100.00;60361.69;5114163;27;20047;-77
2022/08/05 08:51:28;;;;;;;10.00;5.50;;;;;;;-147.76;100.00;60361.69;5114278;28;20083;-77
2022/08/05 08:53:55;;;;;;;9.75;5.60;;;;;;;-147.76;100.00;60361.69;5114393;28;20081;-76
2022/08/05 08:56:23;;;;;;;10.35;5.22;;;;;;;-147.76;100.00;60361.69;5114351;28;20052;-76
2022/08/05 08:58:51;;;;;;;12.00;5.50;;;;;;;-147.76;100.00;60361.69;5114385;28;20488;-76
2022/08/05 09:01:19;;;;;;;8.57;5.13;;;;;;;-147.76;100.00;60361.69;5114342;28;20048;-76
2022/08/05 09:03:50;;;;;;;8.85;5.28;;;;;;;-147.76;100.00;60361.69;5113952;28;20100;-76
2022/08/05 09:06:18;;;;;;;11.95;5.75;;;;;;;-147.76;100.00;60361.69;5115588;27;20119;-76
2022/08/05 09:08:46;;;;;;;9.95;5.63;;;;;;;-147.76;100.00;60361.69;5114212;27;20039;-76
2022/08/05 09:11:14;;;;;;;13.93;5.63;;;;;;;-147.76;100.00;60361.69;5114124;28;20412;-76
2022/08/05 09:13:42;;;;;;;10.02;5.15;;;;;;;-147.76;100.00;60361.69;5114394;27;20047;-77
2022/08/05 09:16:11;;;;;;;9.52;5.10;;;;;;;-147.76;100.00;60361.69;5114235;28;20055;-76
2022/08/05 09:18:39;;;;;;;13.75;5.30;;;;;;;-147.76;100.00;60361.69;5113629;28;20058;-77
2022/08/05 09:21:06;;;;;;;9.93;5.70;;;;;;;-147.76;100.00;60361.69;5114296;27;20039;-76
2022/08/05 09:23:36;;;;;;;10.68;5.20;;;;;;;-147.76;100.00;60361.69;5114246;27;20047;-76
2022/08/05 09:26:08;;;;;;;10.00;5.00;;;;;;;-147.76;100.00;60361.69;5114195;27;20050;-76
2022/08/05 09:28:37;;;;;;;9.95;5.13;;;;;;;-147.76;100.00;60361.69;5113964;27;20445;-76
2022/08/05 09:31:06;;;;;;;12.85;5.72;;;;;;;-147.76;100.00;60361.69;5113923;28;20493;-77
2022/08/05 09:33:47;;;;;;;11.02;5.38;;;;;;;-147.76;100.00;60361.69;5113652;28;20492;-76
2022/08/05 09:36:15;;;;;;;11.00;5.47;;;;;;;-147.76;100.00;60361.69;5113913;28;20397;-77
2022/08/05 09:38:57;;;;;;;9.57;5.40;;;;;;;-147.76;100.00;60361.69;5113873;28;20104;-76
2022/08/05 09:41:26;;;;;;;10.07;5.32;;;;;;;-147.76;100.00;60361.69;5113593;27;20040;-76
2022/08/05 09:43:53;;;;;;;11.10;5.15;;;;;;;-147.76;100.00;60361.69;5113845;27;20047;-76
2022/08/05 09:46:26;;;;;;;10.32;5.45;;;;;;;-147.76;100.00;60361.69;5113799;28;20043;-76
2022/08/05 09:48:54;;;;;;;10.57;5.80;;;;;;;-147.76;100.00;60361.69;5113156;27;20051;-77
2022/08/05 09:51:31;;;;;;;10.77;5.57;;;;;;;-147.76;100.00;60361.69;5113448;28;20527;-76
2022/08/05 09:54:06;;;;;;;10.65;5.50;;;;;;;-147.76;100.00;60361.69;5113664;28;20048;-76
2022/08/05 09:56:34;;;;;;;10.52;5.28;;;;;;;-147.76;100.00;60361.69;5113567;28;20052;-77
2022/08/05 09:59:04;;;;;;;11.32;5.68;;;;;;;-147.76;100.00;60361.69;5113454;28;20100;-77
2022/08/05 10:01:33;;;;;;;10.70;5.05;;;;;;;-147.76;100.00;60361.69;5113290;28;20040;-76
2022/08/05 10:04:03;;;;;;;10.93;5.30;;;;;;;-147.76;100.00;60361.69;5113517;28;20458;-77
2022/08/05 10:06:31;;;;;;;12.02;5.13;;;;;;;-147.76;100.00;60361.69;5113443;28;20496;-76
2022/08/05 10:09:11;;;;;;;10.38;5.38;;;;;;;-147.76;100.00;60361.69;5113343;28;20507;-74
2022/08/05 10:11:39;;;;;;;10.82;5.25;;;;;;;-147.76;100.00;60361.69;5114869;27;20048;-74
2022/08/05 10:14:22;;;;;;;9.90;5.32;;;;;;;-147.76;100.00;60361.69;5113623;28;20096;-76
2022/08/05 10:16:50;;;;;;;9.80;4.75;;;;;;;-147.76;100.00;60361.69;5113298;28;20054;-76
2022/08/05 10:19:18;;;;;;;10.85;5.20;;;;;;;-147.76;100.00;60361.69;5113124;28;20052;-77
2022/08/05 10:21:48;;;;;;;8.85;5.22;;;;;;;-147.76;100.00;60361.69;5113358;28;20047;-74
2022/08/05 10:24:18;;;;;;;9.77;5.30;;;;;;;-147.76;100.00;60361.69;5114605;27;20050;-74
2022/08/05 10:26:47;;;;;;;12.90;5.38;;;;;;;-147.76;100.00;60361.69;5113404;27;20069;-76
2022/08/05 10:29:15;;;;;;;12.10;5.28;;;;;;;-147.76;100.00;60361.69;5113382;27;20042;-76
2022/08/05 10:31:43;;;;;;;9.90;5.53;;;;;;;-147.76;100.00;60361.69;5112998;28;20048;-76
2022/08/05 10:34:10;;;;;;;13.82;5.07;;;;;;;-147.76;100.00;60361.69;5113473;27;20055;-77
2022/08/05 10:36:40;;;;;;;9.65;5.10;;;;;;;-147.76;100.00;60361.69;5113232;28;20047;-77
2022/08/05 10:39:12;;;;;;;10.18;5.18;;;;;;;-147.76;100.00;60361.69;5113165;27;20058;-77
2022/08/05 10:41:47;;;;;;;9.43;5.10;;;;;;;-147.76;100.00;60361.69;5114221;28;20051;-77
2022/08/05 10:44:17;;;;;;;9.13;5.35;;;;;;;-147.76;100.00;60361.69;5114277;27;20047;-77
2022/08/05 10:46:46;;;;;;;10.90;5.30;;;;;;;-147.76;100.00;60361.69;5112890;28;20047;-76
2022/08/05 10:49:13;;;;;;;9.80;6.05;;;;;;;-147.76;100.00;60361.69;5112800;28;20047;-76
2022/08/05 10:51:45;;;;;;;9.52;5.40;;;;;;;-147.76;100.00;60361.69;5113938;28;20056;-76
2022/08/05 10:54:12;;;;;;;8.68;4.88;;;;;;;-147.76;100.00;60361.69;5115166;27;20043;-76
2022/08/05 10:56:50;;;;;;;10.93;5.22;;;;;;;-147.76;100.00;60361.69;5117106;27;20066;-77
2022/08/05 10:59:19;;;;;;;10.20;5.25;;;;;;;-147.76;100.00;60361.69;5116389;28;20134;-76
2022/08/05 11:01:46;;;;;;;12.07;5.00;;;;;;;-147.76;100.00;60361.69;5116766;28;20171;-76
2022/08/05 11:04:16;;;;;;;9.27;4.80;;;;;;;-147.76;100.00;60361.69;5116610;28;20397;-77
2022/08/05 11:07:10;;;;;;;8.80;4.70;;;;;;;-147.76;100.00;60361.69;5116713;28;20044;-77
2022/08/05 11:09:39;;;;;;;10.38;4.90;;;;;;;-147.76;100.00;60361.69;5116422;28;20052;-77
2022/08/05 11:12:41;;;;;;;12.13;5.75;;;;;;;-147.76;100.00;60361.69;5116670;28;20047;-76
2022/08/05 11:15:16;;;;;;;8.63;5.18;;;;;;;-147.76;100.00;60361.69;5116112;28;20065;-76
2022/08/05 11:17:45;;;;;;;10.90;5.05;;;;;;;-147.76;100.00;60361.69;5116457;28;20051;-77